• Join FlightAware (Why Join?)
  • Login
  • US Flag 
06:38PM EDT


 

Airport Tracker/Info


-or-


 

Live Flight TrackerFlight Track Log ✈ FLG3454 ✈ 13-May-2013 ✈ KCVG - KORD

Flight Track Log - Related Links

Times and Time Zones

All times are in EDT time to prevent confusion due to time zone crossing. See the FLG3454 flight status page for this flight to view local times or setup timezone preferences in your user account.

Time Position Orientation Groundspeed Altitude Reporting Facility
EDT Latitude Longitude Course Direction KTS MPH feet Rate Location/Type
02:06PM 39.0500 -84.6833 351° North 163 188 1,500  Level Cincinnati TRACON
02:06PM 39.0500 -84.7000 270° West 166 191 2,300 2,460 Climbing Cincinnati TRACON
02:07PM 39.1000 -84.7333 333° Northwest 201 231 4,700 2,160 Climbing Cincinnati TRACON
02:08PM 39.1500 -84.7667 333° Northwest 257 296 6,700 2,460 Climbing Cincinnati TRACON
02:09PM 38.9337 -84.8204 313° West  Level FlightAware Approximate
02:10PM 38.9927 -84.8754 345° North  Level FlightAware Approximate
02:10PM 39.2675 -84.8397 334° Northwest 252 290 11,600  Level Indianapolis Center
02:11PM 39.0671 -84.8934 351° North  Level FlightAware Approximate
02:11PM 39.3417 -84.8825 336° Northwest 275 316 14,700  Level Indianapolis Center
02:12PM 39.4114 -84.9264 334° Northwest 280 322 17,000 2,160 Climbing Indianapolis Center
02:13PM 39.4797 -84.9739 332° Northwest 281 323 19,200 1,920 Climbing Indianapolis Center
02:14PM 39.5497 -85.0214 332° Northwest 284 327 21,000 1,080 Climbing Indianapolis Center
02:15PM 39.6225 -85.0714 332° Northwest 295 339 21,500 480 Climbing Indianapolis Center
02:16PM 39.6942 -85.1211 332° Northwest 293 337 22,000 240 Climbing Indianapolis Center
02:17PM 39.7619 -85.1683 332° Northwest 282 325 22,000  Level Indianapolis Center
02:18PM 39.8450 -85.2250 332° Northwest 284 327 22,000  Level Indianapolis Center
02:19PM 39.9142 -85.2728 332° Northwest 282 325 22,000  Level Indianapolis Center
02:20PM 39.9853 -85.3219 332° Northwest 288 331 22,000  Level Indianapolis Center
02:21PM 40.0600 -85.3742 332° Northwest 303 349 22,000  Level Indianapolis Center
02:22PM 40.1375 -85.4286 332° Northwest 315 362 22,000  Level Indianapolis Center
02:23PM 40.2153 -85.4825 332° Northwest 322 371 22,000  Level Chicago Center
02:24PM 40.2958 -85.5375 332° Northwest 328 377 22,000  Level Chicago Center
02:25PM 40.3756 -85.5944 331° Northwest 328 377 22,000  Level Chicago Center
02:26PM 40.4550 -85.6508 332° Northwest 327 376 22,000  Level Chicago Center
02:27PM 40.5403 -85.6942 339° North 330 380 22,000  Level Chicago Center
02:28PM 40.6275 -85.7289 343° North 329 379 22,000  Level Chicago Center
02:29PM 40.7325 -85.7708 343° North 331 381 22,000  Level Chicago Center
02:30PM 40.8206 -85.8056 343° North 331 381 22,000  Level Chicago Center
02:31PM 40.9094 -85.8406 343° North 331 381 22,000  Level Chicago Center
02:32PM 40.9886 -85.9000 330° Northwest 353 406 22,000 -240 Level Chicago Center
02:33PM 41.0492 -85.9947 310° West 341 392 21,600 -780 Descending Chicago Center
02:34PM 41.1186 -86.1067 309° West 333 383 20,400 -1,140 Descending Chicago Center
02:36PM 41.1775 -86.2003 310° West 329 379 19,300 -1,140 Descending Chicago Center
02:37PM 41.2378 -86.2994 309° West 341 392 18,100 -1,140 Descending Chicago Center
02:38PM 41.3014 -86.4028 309° West 354 407 17,000 -1,260 Descending Chicago Center
02:39PM 41.3642 -86.5039 310° West 355 409 15,500 -1,500 Descending Chicago Center
02:40PM 41.4258 -86.6039 309° West 352 405 14,000 -1,560 Descending Chicago Center
02:41PM 41.4969 -86.7172 310° West 346 398 12,300 -1,020 Descending Chicago Center
02:42PM 41.5717 -86.7856 326° Northwest 344 396 12,000 -180 Descending Chicago Center
02:43PM 41.6608 -86.7947 356° North 324 373 12,000  Level Chicago Center
02:44PM 41.7483 -86.8058 355° North 320 368 12,000  Level Chicago Center
02:45PM 41.8508 -86.8264 352° North 315 362 12,000  Level Chicago Center
02:46PM 41.9078 -86.9089 313° West 316 364 12,000 -300 Level Chicago Center
02:47PM 41.9239 -87.0272 280° West 322 371 11,500 -780 Descending Chicago Center
02:48PM 41.9394 -87.1286 282° West 283 326 10,400 -1,260 Descending Chicago Center
02:49PM 41.9517 -87.2194 280° West 256 295 8,900 -1,620 Descending Chicago Center
02:50PM 41.9669 -87.3275 281° West 247 284 7,100 -960 Descending Chicago Center
02:51PM 41.9794 -87.4172 281° West 246 283 7,000 -120 Descending Chicago Center
02:51PM 41.9833 -87.4500 279° West 251 289 7,000 -780 Level Chicago TRACON
02:52PM 41.9833 -87.5500 270° West 246 283 6,000 -1,320 Descending Chicago TRACON
02:53PM 41.9833 -87.6333 270° West 230 265 4,400 -1,380 Descending Chicago TRACON
02:54PM 41.9833 -87.7000 270° West 202 232 3,400 -1,080 Descending Chicago TRACON
02:55PM 41.9833 -87.7667 270° West 187 215 2,400 -1,020 Descending Chicago TRACON